Time;durP1;ratioP1;P1;durP2;ratioP2;P2;SDS_P1;SDS_P2;PMS_P1;PMS_P2;Temp;Humidity;BMP_temperature;BMP_pressure;BME280_temperature;BME280_humidity;BME280_pressure;Samples;Min_cycle;Max_cycle;Signal;HPM_P1;HPM_P2
2023/11/17 00:00:06;;;;;;;10.20;6.30;;;;;;;11.73;43.08;101882.80;106904;1260;22543;-60
2023/11/17 00:02:35;;;;;;;10.20;6.40;;;;;;;11.67;43.12;101887.52;106906;1260;24232;-60
2023/11/17 00:05:04;;;;;;;7.30;6.40;;;;;;;11.60;43.20;101884.95;106891;1260;22533;-60
2023/11/17 00:07:32;;;;;;;7.70;6.90;;;;;;;11.59;43.25;101889.32;106229;1257;1002965;-61
2023/11/17 00:10:00;;;;;;;8.70;5.90;;;;;;;11.57;43.13;101885.52;106314;1254;1003017;-60
2023/11/17 00:12:28;;;;;;;7.50;6.50;;;;;;;11.55;43.21;101885.01;107004;1257;22531;-60
2023/11/17 00:14:56;;;;;;;7.10;6.20;;;;;;;11.53;43.17;101886.23;106918;1253;24377;-60
2023/11/17 00:17:24;;;;;;;7.00;5.90;;;;;;;11.51;43.15;101889.73;106072;1254;1005623;-60
2023/11/17 00:19:52;;;;;;;7.10;6.40;;;;;;;11.48;43.25;101890.45;106757;1258;25316;-61
2023/11/17 00:22:20;;;;;;;7.40;6.70;;;;;;;11.46;43.24;101899.67;106630;1259;22528;-60
2023/11/17 00:24:48;;;;;;;7.30;6.40;;;;;;;11.42;43.31;101900.91;106658;1256;25415;-61
2023/11/17 00:27:16;;;;;;;7.10;6.40;;;;;;;11.40;43.47;101905.45;106772;1260;22539;-60
2023/11/17 00:29:44;;;;;;;7.40;6.50;;;;;;;11.36;43.59;101907.36;106822;1256;22529;-60
2023/11/17 00:32:12;;;;;;;7.00;6.30;;;;;;;11.33;43.66;101909.82;106713;1269;24310;-61
2023/11/17 00:34:40;;;;;;;6.50;5.90;;;;;;;11.32;43.57;101911.73;106930;1272;22529;-60
2023/11/17 00:37:09;;;;;;;7.00;6.20;;;;;;;11.30;43.38;101917.14;106806;1257;22621;-60
2023/11/17 00:39:38;;;;;;;8.00;6.10;;;;;;;11.28;43.40;101918.89;106058;1267;1003709;-60
2023/11/17 00:42:07;;;;;;;6.90;6.20;;;;;;;11.27;43.25;101911.61;106741;1254;22530;-60
2023/11/17 00:44:36;;;;;;;8.00;6.80;;;;;;;11.25;43.14;101908.84;106622;1260;22524;-60
2023/11/17 00:47:04;;;;;;;6.90;6.20;;;;;;;11.25;43.13;101910.74;105832;1256;1003404;-60
2023/11/17 00:49:34;;;;;;;7.80;6.60;;;;;;;11.23;43.19;101914.39;106764;1273;22636;-60
2023/11/17 00:52:05;;;;;;;8.10;6.90;;;;;;;11.21;43.06;101913.39;106796;1267;25297;-60
2023/11/17 00:54:42;;;;;;;7.20;6.10;;;;;;;11.18;42.99;101916.69;106946;1255;22596;-61
2023/11/17 00:57:11;;;;;;;8.70;6.30;;;;;;;11.15;42.87;101926.27;106430;1254;22584;-60
2023/11/17 00:59:39;;;;;;;7.40;5.80;;;;;;;11.10;42.76;101924.39;106766;1259;24338;-60
2023/11/17 01:02:06;;;;;;;5.90;5.30;;;;;;;11.05;42.71;101919.20;106187;1261;1003220;-60
2023/11/17 01:04:34;;;;;;;7.10;5.80;;;;;;;11.02;42.68;101921.30;107058;1258;22520;-60
2023/11/17 01:07:02;;;;;;;6.90;6.00;;;;;;;10.98;42.84;101917.68;106918;1258;24271;-60
2023/11/17 01:09:30;;;;;;;7.40;6.50;;;;;;;10.96;42.74;101911.95;107087;1257;22531;-60
2023/11/17 01:11:58;;;;;;;7.50;6.60;;;;;;;10.93;42.77;101909.19;106966;1267;22533;-60
2023/11/17 01:14:25;;;;;;;6.60;5.70;;;;;;;10.88;42.88;101911.12;106984;1257;22534;-60
2023/11/17 01:16:53;;;;;;;9.00;6.90;;;;;;;10.84;42.95;101907.67;106985;1257;22533;-60
2023/11/17 01:19:21;;;;;;;7.10;6.00;;;;;;;10.76;43.13;101903.73;106886;1260;25297;-60
2023/11/17 01:21:49;;;;;;;7.00;6.10;;;;;;;10.70;43.24;101897.33;106875;1260;22529;-60
2023/11/17 01:24:18;;;;;;;8.40;6.90;;;;;;;10.66;43.25;101892.65;106844;1261;25375;-60
2023/11/17 01:26:46;;;;;;;7.20;6.40;;;;;;;10.62;43.42;101888.86;106957;1255;22552;-60
2023/11/17 01:29:14;;;;;;;6.80;6.00;;;;;;;10.59;43.39;101885.05;107086;1254;22530;-60
2023/11/17 01:31:42;;;;;;;6.80;6.00;;;;;;;10.58;43.45;101892.34;106658;1263;25355;-61
2023/11/17 01:34:09;;;;;;;6.30;5.70;;;;;;;10.56;43.59;101899.64;106840;1254;23000;-60
2023/11/17 01:36:37;;;;;;;6.50;5.90;;;;;;;10.54;43.68;101904.67;106969;1257;22533;-60
2023/11/17 01:39:07;;;;;;;6.80;5.90;;;;;;;10.53;43.79;101902.07;106977;1261;25300;-60
2023/11/17 01:41:36;;;;;;;6.30;5.60;;;;;;;10.52;43.63;101891.31;106951;1255;22574;-60
2023/11/17 01:44:03;;;;;;;7.00;6.30;;;;;;;10.51;43.54;101890.45;107003;1258;22538;-60
2023/11/17 01:46:31;;;;;;;6.80;6.00;;;;;;;10.49;43.47;101894.80;106659;1264;22525;-60
2023/11/17 01:48:59;;;;;;;6.20;5.60;;;;;;;10.46;43.56;101894.45;106157;1260;1003450;-60
2023/11/17 01:51:27;;;;;;;7.00;5.80;;;;;;;10.44;43.51;101888.75;107079;1258;22519;-61
2023/11/17 01:53:55;;;;;;;5.70;5.10;;;;;;;10.41;43.39;101880.94;106940;1256;22548;-60
2023/11/17 01:56:24;;;;;;;5.70;5.10;;;;;;;10.38;43.55;101875.05;106751;1260;22536;-60
2023/11/17 01:58:51;;;;;;;8.60;5.90;;;;;;;10.33;43.60;101865.37;107024;1272;24236;-60
2023/11/17 02:01:19;;;;;;;7.70;5.60;;;;;;;10.31;43.76;101859.47;106843;1260;22995;-60
2023/11/17 02:03:48;;;;;;;9.60;6.40;;;;;;;10.28;43.69;101860.00;107081;1257;22531;-64
2023/11/17 02:06:29;;;;;;;7.20;6.20;;;;;;;10.27;43.71;101864.33;106706;1257;22531;-62
2023/11/17 02:09:24;;;;;;;7.10;5.70;;;;;;;10.27;43.86;101858.61;106691;1254;22526;-61
2023/11/17 02:12:18;;;;;;;8.10;5.90;;;;;;;10.27;43.60;101848.55;106701;1253;22534;-61
2023/11/17 02:14:47;;;;;;;6.60;5.90;;;;;;;10.28;43.65;101839.54;106214;1259;22540;-61
2023/11/17 02:17:15;;;;;;;5.70;5.20;;;;;;;10.27;43.67;101836.41;105328;1264;1003129;-60
2023/11/17 02:19:43;;;;;;;6.80;5.90;;;;;;;10.26;43.70;101831.05;106134;1260;22543;-61
2023/11/17 02:22:14;;;;;;;6.60;5.90;;;;;;;10.24;43.70;101830.70;106157;1264;22571;-61
2023/11/17 02:24:57;;;;;;;7.10;6.20;;;;;;;10.23;43.76;101832.27;106232;1261;22547;-60
2023/11/17 02:27:37;;;;;;;8.40;6.40;;;;;;;10.21;43.88;101829.16;105316;1263;1003466;-60
2023/11/17 02:30:05;;;;;;;6.40;5.80;;;;;;;10.19;43.92;101827.26;106108;1266;25297;-60
2023/11/17 02:32:38;;;;;;;7.20;5.80;;;;;;;10.16;44.07;101824.48;105476;1276;1003414;-61
2023/11/17 02:35:08;;;;;;;7.40;6.60;;;;;;;10.16;44.22;101824.67;106230;1265;25310;-61
2023/11/17 02:37:38;;;;;;;9.20;5.70;;;;;;;10.16;44.24;101820.68;106160;1260;22609;-61
2023/11/17 02:40:18;;;;;;;6.30;5.70;;;;;;;10.16;44.40;101808.54;105453;1260;1003516;-62
2023/11/17 02:42:51;;;;;;;7.00;6.20;;;;;;;10.17;44.36;101806.45;106174;1262;22536;-61
2023/11/17 02:45:25;;;;;;;6.80;6.00;;;;;;;10.18;44.42;101799.34;106101;1260;22548;-62
2023/11/17 02:47:56;;;;;;;6.50;5.80;;;;;;;10.21;44.32;101804.01;106080;1262;22548;-61
2023/11/17 02:50:38;;;;;;;6.50;5.90;;;;;;;10.23;44.19;101806.59;106068;1270;22654;-60
2023/11/17 02:53:17;;;;;;;6.90;6.20;;;;;;;10.24;44.29;101807.11;106498;1262;22784;-60
2023/11/17 02:55:45;;;;;;;6.90;6.10;;;;;;;10.26;44.24;101810.23;106684;1256;25328;-60
2023/11/17 02:58:15;;;;;;;6.70;6.00;;;;;;;10.25;44.24;101809.89;106797;1256;22527;-61
2023/11/17 03:00:43;;;;;;;7.30;6.40;;;;;;;10.24;44.32;101809.73;106861;1271;22530;-61
2023/11/17 03:03:11;;;;;;;7.20;5.90;;;;;;;10.23;44.17;101809.73;107100;1254;22546;-61
2023/11/17 03:05:39;;;;;;;6.90;5.80;;;;;;;10.21;44.27;101809.21;106211;1257;1003296;-61
2023/11/17 03:08:07;;;;;;;7.70;6.40;;;;;;;10.20;44.13;101802.10;106047;1260;1003080;-61
2023/11/17 03:10:36;;;;;;;6.70;6.10;;;;;;;10.20;44.07;101802.29;106973;1267;22530;-61
2023/11/17 03:13:04;;;;;;;7.20;5.60;;;;;;;10.20;44.06;101800.38;106204;1254;1003773;-61
2023/11/17 03:15:32;;;;;;;6.90;6.20;;;;;;;10.21;44.06;101801.77;106166;1256;1002711;-62
2023/11/17 03:17:59;;;;;;;7.30;6.00;;;;;;;10.22;44.04;101805.38;106786;1275;22539;-61
2023/11/17 03:20:28;;;;;;;7.40;5.60;;;;;;;10.23;44.11;101804.35;106931;1260;22553;-61
2023/11/17 03:23:00;;;;;;;6.60;5.90;;;;;;;10.24;44.15;101809.20;106847;1257;22837;-61
2023/11/17 03:25:28;;;;;;;6.60;6.00;;;;;;;10.24;44.23;101809.36;106986;1257;25523;-61
2023/11/17 03:27:56;;;;;;;7.10;6.10;;;;;;;10.23;44.43;101804.35;106825;1257;22525;-61
2023/11/17 03:30:24;;;;;;;7.30;6.50;;;;;;;10.22;44.32;101800.20;106942;1259;25270;-61
2023/11/17 03:32:55;;;;;;;6.80;6.10;;;;;;;10.20;44.38;101806.27;106979;1254;22528;-62
2023/11/17 03:35:23;;;;;;;7.30;6.10;;;;;;;10.19;44.46;101802.63;106927;1255;22857;-62
2023/11/17 03:37:51;;;;;;;6.90;6.20;;;;;;;10.18;44.50;101802.63;106342;1254;1003028;-61
2023/11/17 03:40:19;;;;;;;6.70;6.00;;;;;;;10.18;44.58;101797.45;106835;1270;22522;-61
2023/11/17 03:42:47;;;;;;;6.70;6.00;;;;;;;10.19;44.52;101797.94;106988;1257;22529;-61
2023/11/17 03:45:15;;;;;;;6.80;6.10;;;;;;;10.19;44.47;101793.96;107075;1254;25297;-61
2023/11/17 03:47:45;;;;;;;6.90;6.20;;;;;;;10.20;44.41;101794.48;106803;1256;24278;-61
2023/11/17 03:50:13;;;;;;;8.10;6.00;;;;;;;10.20;44.41;101793.42;106936;1254;23085;-61
2023/11/17 03:52:42;;;;;;;8.50;6.00;;;;;;;10.23;44.42;101789.61;106829;1256;24260;-61
2023/11/17 03:55:11;;;;;;;6.90;6.10;;;;;;;10.24;44.43;101785.61;106886;1258;25252;-61
2023/11/17 03:57:39;;;;;;;7.90;6.30;;;;;;;10.24;44.68;101781.27;106847;1253;22530;-62
2023/11/17 04:00:10;;;;;;;6.70;5.80;;;;;;;10.24;44.49;101779.20;105894;1256;1003068;-61
2023/11/17 04:02:40;;;;;;;6.80;6.10;;;;;;;10.23;44.58;101778.52;106628;1254;22993;-61
2023/11/17 04:05:13;;;;;;;7.50;6.40;;;;;;;10.21;44.67;101772.45;106668;1256;25369;-62
2023/11/17 04:07:44;;;;;;;6.60;5.90;;;;;;;10.21;44.93;101772.98;105904;1267;1003558;-61
2023/11/17 04:10:12;;;;;;;7.40;6.60;;;;;;;10.22;45.22;101770.20;106729;1254;22545;-61
2023/11/17 04:12:40;;;;;;;8.00;6.20;;;;;;;10.23;45.12;101765.68;105910;1256;1003615;-61
2023/11/17 04:15:09;;;;;;;7.10;6.30;;;;;;;10.24;45.30;101759.96;106711;1268;22533;-61
2023/11/17 04:17:41;;;;;;;7.30;6.50;;;;;;;10.26;45.50;101749.70;106458;1253;22647;-61
2023/11/17 04:20:14;;;;;;;6.80;6.00;;;;;;;10.28;45.72;101748.84;106644;1259;22549;-61
2023/11/17 04:22:42;;;;;;;7.10;6.40;;;;;;;10.31;45.94;101754.02;106066;1267;1003603;-62
2023/11/17 04:25:10;;;;;;;7.50;6.70;;;;;;;10.34;46.14;101752.96;106601;1267;25281;-61
2023/11/17 04:27:38;;;;;;;7.00;5.70;;;;;;;10.38;46.40;101752.25;106642;1253;22539;-61
2023/11/17 04:30:07;;;;;;;6.70;6.00;;;;;;;10.42;46.64;101753.44;106645;1253;22526;-61
2023/11/17 04:32:35;;;;;;;6.70;6.00;;;;;;;10.48;46.70;101755.15;106598;1269;22628;-60
2023/11/17 04:35:03;;;;;;;6.40;5.70;;;;;;;10.54;46.73;101750.95;106456;1257;22549;-60
2023/11/17 04:37:31;;;;;;;6.30;5.70;;;;;;;10.57;46.72;101753.54;106370;1275;22560;-60
2023/11/17 04:40:01;;;;;;;6.80;6.10;;;;;;;10.61;46.76;101749.70;106604;1254;25376;-60
2023/11/17 04:42:29;;;;;;;8.20;5.10;;;;;;;10.67;46.66;101743.58;106439;1270;528097;-60
2023/11/17 04:44:57;;;;;;;5.10;4.50;;;;;;;10.71;46.05;101731.41;106883;1256;22533;-61
2023/11/17 04:47:25;;;;;;;7.90;4.20;;;;;;;10.76;45.79;101732.94;106807;1254;22568;-61
2023/11/17 04:49:53;;;;;;;4.70;4.20;;;;;;;10.82;45.70;101748.49;107067;1254;22530;-61
2023/11/17 04:52:21;;;;;;;5.00;4.50;;;;;;;10.88;45.40;101759.57;107036;1259;22541;-61
2023/11/17 04:54:49;;;;;;;4.50;4.00;;;;;;;10.93;45.12;101758.67;106712;1256;22668;-62
2023/11/17 04:57:17;;;;;;;5.10;4.60;;;;;;;10.97;44.82;101755.70;106946;1256;22723;-61
2023/11/17 04:59:49;;;;;;;5.00;4.30;;;;;;;10.99;44.59;101756.89;106392;1256;1003538;-61
2023/11/17 05:02:17;;;;;;;7.00;4.90;;;;;;;11.01;44.52;101768.34;107055;1257;24643;-61
2023/11/17 05:04:45;;;;;;;4.60;4.20;;;;;;;11.03;44.33;101782.04;106888;1267;22535;-61
2023/11/17 05:07:12;;;;;;;5.10;4.50;;;;;;;11.03;44.13;101780.30;106979;1256;25304;-62
2023/11/17 05:09:42;;;;;;;6.90;4.80;;;;;;;11.03;44.20;101778.23;106903;1257;22649;-61
2023/11/17 05:12:10;;;;;;;4.80;4.40;;;;;;;11.04;44.14;101780.48;107108;1269;22534;-61
2023/11/17 05:14:38;;;;;;;5.50;4.90;;;;;;;11.03;44.21;101789.69;107053;1268;24265;-62
2023/11/17 05:17:09;;;;;;;5.80;5.10;;;;;;;11.04;44.31;101799.40;106767;1257;22553;-61
2023/11/17 05:19:37;;;;;;;6.30;4.70;;;;;;;11.05;44.38;101800.61;106860;1257;22546;-62
2023/11/17 05:22:06;;;;;;;8.20;5.40;;;;;;;11.06;44.32;101797.82;106789;1256;25913;-62
2023/11/17 05:24:34;;;;;;;7.50;5.00;;;;;;;11.08;44.12;101802.15;105980;1259;1002444;-62
2023/11/17 05:27:02;;;;;;;6.10;5.20;;;;;;;11.09;44.05;101812.21;106646;1257;22529;-62
2023/11/17 05:29:30;;;;;;;7.10;5.60;;;;;;;11.16;43.87;101811.98;106829;1257;22543;-62
2023/11/17 05:31:57;;;;;;;6.90;5.90;;;;;;;11.23;43.66;101814.19;106652;1258;22526;-62
2023/11/17 05:34:25;;;;;;;6.70;6.00;;;;;;;11.25;43.86;101822.34;106764;1253;22530;-62
2023/11/17 05:36:53;;;;;;;7.80;5.50;;;;;;;11.24;44.04;101827.91;106595;1253;25287;-62
2023/11/17 05:39:21;;;;;;;6.10;5.30;;;;;;;11.23;44.12;101827.91;105764;1260;1003003;-62
2023/11/17 05:41:49;;;;;;;8.30;6.20;;;;;;;11.22;44.28;101822.36;106700;1257;24685;-62
2023/11/17 05:44:17;;;;;;;8.00;6.20;;;;;;;11.22;44.39;101818.54;106569;1259;22526;-62
2023/11/17 05:46:44;;;;;;;9.30;6.60;;;;;;;11.22;44.47;101814.20;106578;1256;24776;-62
2023/11/17 05:49:12;;;;;;;7.40;6.50;;;;;;;11.24;44.49;101813.83;106631;1259;22530;-61
2023/11/17 05:51:40;;;;;;;8.40;7.50;;;;;;;11.25;44.49;101813.65;106928;1253;22535;-61
2023/11/17 05:54:08;;;;;;;7.90;6.70;;;;;;;11.28;44.55;101814.84;106772;1258;22533;-62
2023/11/17 05:56:36;;;;;;;7.70;6.10;;;;;;;11.32;44.38;101809.77;106826;1261;22621;-61
2023/11/17 05:59:09;;;;;;;7.50;6.30;;;;;;;11.36;44.30;101817.02;106983;1259;22530;-61
2023/11/17 06:01:40;;;;;;;6.90;6.20;;;;;;;11.40;44.32;101826.92;106834;1256;22534;-62
2023/11/17 06:04:11;;;;;;;6.60;5.90;;;;;;;11.46;44.22;101832.77;106781;1270;22536;-61
2023/11/17 06:06:39;;;;;;;8.30;6.50;;;;;;;11.48;44.25;101830.49;107002;1256;25350;-61
2023/11/17 06:09:07;;;;;;;7.30;6.30;;;;;;;11.52;44.22;101828.55;107011;1257;24534;-62
2023/11/17 06:11:39;;;;;;;7.90;7.00;;;;;;;11.52;44.31;101826.45;106170;1258;1003051;-61
2023/11/17 06:14:08;;;;;;;6.90;6.20;;;;;;;11.54;44.34;101829.40;106311;1256;1003140;-61
2023/11/17 06:16:35;;;;;;;7.10;6.40;;;;;;;11.56;44.47;101825.56;106816;1260;22533;-61
2023/11/17 06:19:03;;;;;;;7.00;6.30;;;;;;;11.59;44.57;101823.63;107046;1259;22541;-61
2023/11/17 06:21:32;;;;;;;9.10;6.40;;;;;;;11.62;44.80;101823.41;107040;1256;25491;-61
2023/11/17 06:24:00;;;;;;;12.70;6.20;;;;;;;11.67;45.01;101826.86;106931;1259;22568;-61
2023/11/17 06:26:30;;;;;;;7.50;6.40;;;;;;;11.73;45.06;101832.73;107030;1259;22633;-62
2023/11/17 06:28:59;;;;;;;6.20;5.60;;;;;;;11.79;45.08;101830.59;107029;1257;25348;-62
2023/11/17 06:31:29;;;;;;;7.40;6.40;;;;;;;11.83;45.12;101826.38;107002;1253;22489;-62
2023/11/17 06:33:57;;;;;;;7.90;6.50;;;;;;;11.88;45.19;101824.08;106804;1261;22530;-62
2023/11/17 06:36:25;;;;;;;6.70;5.60;;;;;;;11.92;45.33;101820.90;106964;1259;22530;-62
2023/11/17 06:38:53;;;;;;;6.50;5.90;;;;;;;11.98;45.48;101819.27;106099;1257;1003312;-62
2023/11/17 06:41:21;;;;;;;5.10;4.60;;;;;;;12.05;45.61;101806.33;107064;1256;22533;-62
2023/11/17 06:43:51;;;;;;;6.00;4.50;;;;;;;12.12;44.88;101800.50;106718;1260;24265;-63
2023/11/17 06:46:24;;;;;;;5.30;3.90;;;;;;;12.13;44.01;101786.23;107044;1259;22542;-62
2023/11/17 06:48:52;;;;;;;4.10;3.50;;;;;;;12.14;43.53;101779.77;107107;1256;22539;-62
2023/11/17 06:51:20;;;;;;;3.90;3.50;;;;;;;12.16;43.18;101779.23;106779;1267;22537;-62
2023/11/17 06:53:51;;;;;;;4.90;3.60;;;;;;;12.16;42.94;101788.97;106901;1256;22540;-63
2023/11/17 06:56:19;;;;;;;4.60;3.30;;;;;;;12.18;42.56;101790.67;107019;1256;22551;-64
2023/11/17 06:58:46;;;;;;;3.60;3.20;;;;;;;12.20;41.97;101790.48;106925;1254;22537;-62
2023/11/17 07:01:14;;;;;;;3.90;3.30;;;;;;;12.20;41.63;101790.48;106986;1260;22526;-62
2023/11/17 07:03:42;;;;;;;3.20;2.90;;;;;;;12.20;41.43;101793.79;107051;1253;22527;-62
2023/11/17 07:06:16;;;;;;;3.70;2.90;;;;;;;12.20;41.29;101791.52;106922;1257;22527;-62
2023/11/17 07:08:44;;;;;;;4.40;3.50;;;;;;;12.21;41.19;101788.39;106936;1256;22554;-62
2023/11/17 07:11:15;;;;;;;4.50;3.60;;;;;;;12.21;41.16;101787.00;106836;1253;22526;-62
2023/11/17 07:13:45;;;;;;;7.80;6.90;;;;;;;12.23;41.24;101784.02;106877;1253;22638;-62
2023/11/17 07:16:15;;;;;;;5.60;4.90;;;;;;;12.25;41.24;101778.61;106846;1261;22527;-62
2023/11/17 07:18:43;;;;;;;7.30;6.60;;;;;;;12.28;41.21;101770.73;106656;1259;25375;-62
2023/11/17 07:21:11;;;;;;;7.10;4.20;;;;;;;12.32;41.29;101763.55;106461;1265;22529;-62
2023/11/17 07:23:43;;;;;;;4.70;4.00;;;;;;;12.40;41.31;101770.06;106868;1253;24250;-62
2023/11/17 07:26:20;;;;;;;6.70;5.80;;;;;;;12.45;41.27;101763.56;106967;1256;22527;-61
2023/11/17 07:28:50;;;;;;;9.00;7.50;;;;;;;12.48;41.38;101765.95;106141;1257;1003172;-62
2023/11/17 07:31:18;;;;;;;7.80;7.00;;;;;;;12.55;41.44;101765.85;106828;1253;22543;-61
2023/11/17 07:33:47;;;;;;;7.00;5.90;;;;;;;12.59;41.43;101761.79;106802;1253;22605;-62
2023/11/17 07:36:17;;;;;;;5.90;5.30;;;;;;;12.62;41.58;101761.05;106651;1253;25375;-61
2023/11/17 07:38:51;;;;;;;6.30;5.70;;;;;;;12.61;41.75;101757.74;106638;1253;22525;-61
2023/11/17 07:41:19;;;;;;;5.00;4.50;;;;;;;12.62;41.86;101755.48;106772;1253;22951;-61
2023/11/17 07:43:47;;;;;;;5.30;4.60;;;;;;;12.62;42.07;101754.24;105843;1256;1003543;-62
2023/11/17 07:46:15;;;;;;;4.70;4.30;;;;;;;12.64;42.29;101757.54;105665;1259;1003204;-62
2023/11/17 07:48:45;;;;;;;4.40;4.00;;;;;;;12.68;42.44;101760.98;106319;1261;22529;-62
2023/11/17 07:51:23;;;;;;;5.40;4.70;;;;;;;12.73;42.59;101755.66;106767;1256;22545;-62
2023/11/17 07:53:51;;;;;;;5.40;4.50;;;;;;;12.80;42.86;101762.35;105949;1257;1003596;-61
2023/11/17 07:56:19;;;;;;;5.00;4.50;;;;;;;12.88;42.84;101767.27;105979;1255;1003047;-62
2023/11/17 07:58:48;;;;;;;5.70;4.20;;;;;;;13.03;42.63;101764.27;106840;1257;22526;-62
2023/11/17 08:01:18;;;;;;;4.70;4.10;;;;;;;13.11;42.44;101763.64;106578;1260;22532;-62
2023/11/17 08:03:46;;;;;;;4.40;3.60;;;;;;;13.18;42.28;101759.00;106595;1254;22530;-61
2023/11/17 08:06:14;;;;;;;5.60;4.60;;;;;;;13.21;42.29;101754.95;106695;1253;22526;-62
2023/11/17 08:08:41;;;;;;;5.20;4.40;;;;;;;13.24;42.36;101756.98;106648;1253;22620;-62
2023/11/17 08:11:09;;;;;;;6.90;4.90;;;;;;;13.27;42.44;101752.56;106729;1256;22529;-62
2023/11/17 08:13:42;;;;;;;6.30;4.30;;;;;;;13.34;42.48;101758.91;106980;1253;22529;-63
2023/11/17 08:16:10;;;;;;;5.20;4.20;;;;;;;13.39;42.45;101767.35;106296;1256;1002744;-62
2023/11/17 08:18:38;;;;;;;6.00;4.60;;;;;;;13.43;42.52;101773.20;106854;1257;22530;-62
2023/11/17 08:21:06;;;;;;;6.30;4.90;;;;;;;13.46;42.56;101774.20;106867;1259;22526;-61
2023/11/17 08:23:35;;;;;;;7.40;5.40;;;;;;;13.52;42.59;101777.23;106915;1257;22539;-62
2023/11/17 08:26:04;;;;;;;6.30;5.20;;;;;;;13.56;42.75;101779.60;107055;1256;22530;-64
2023/11/17 08:28:32;;;;;;;7.70;5.50;;;;;;;13.62;42.86;101776.73;106845;1256;25337;-62
2023/11/17 08:31:02;;;;;;;8.60;6.50;;;;;;;13.68;42.85;101774.33;106921;1259;25376;-61
2023/11/17 08:33:31;;;;;;;7.90;5.50;;;;;;;13.73;43.00;101765.17;107028;1261;22529;-60
2023/11/17 08:35:59;;;;;;;5.90;5.30;;;;;;;13.80;43.04;101750.02;106877;1269;22530;-61
2023/11/17 08:38:27;;;;;;;6.60;5.80;;;;;;;13.89;43.06;101749.67;106846;1260;22529;-63
2023/11/17 08:40:55;;;;;;;6.10;5.40;;;;;;;14.01;42.95;101746.84;107045;1269;22527;-62
2023/11/17 08:43:22;;;;;;;8.10;4.70;;;;;;;13.95;43.23;101741.90;106849;1272;22564;-62
2023/11/17 08:45:52;;;;;;;5.20;4.70;;;;;;;13.95;43.53;101739.09;106383;1269;1003739;-62
2023/11/17 08:48:21;;;;;;;6.30;4.60;;;;;;;14.05;43.63;101728.95;106760;1267;25376;-61
2023/11/17 08:50:48;;;;;;;6.20;5.00;;;;;;;14.16;43.56;101716.16;106858;1256;22537;-61
2023/11/17 08:53:16;;;;;;;5.70;4.30;;;;;;;14.23;43.49;101721.75;107036;1259;22543;-61
2023/11/17 08:55:44;;;;;;;5.10;4.30;;;;;;;14.31;43.25;101717.76;107035;1253;22539;-62
2023/11/17 08:58:13;;;;;;;5.30;4.40;;;;;;;14.37;42.99;101714.34;106929;1258;22533;-63
2023/11/17 09:00:41;;;;;;;6.80;5.50;;;;;;;14.44;43.17;101714.70;106970;1269;25344;-62
2023/11/17 09:03:09;;;;;;;6.10;5.40;;;;;;;14.51;43.27;101710.86;106997;1259;22526;-62
2023/11/17 09:05:37;;;;;;;6.00;5.40;;;;;;;14.62;43.33;101706.08;106941;1253;22520;-62
2023/11/17 09:08:07;;;;;;;6.30;5.70;;;;;;;14.69;43.36;101706.41;107012;1258;22552;-61
2023/11/17 09:10:34;;;;;;;6.50;5.60;;;;;;;14.74;43.48;101705.08;106829;1253;22748;-62
2023/11/17 09:13:04;;;;;;;8.30;6.90;;;;;;;14.80;43.48;101704.77;106778;1269;24258;-63
2023/11/17 09:15:33;;;;;;;7.80;6.00;;;;;;;14.86;43.58;101703.24;106522;1261;22548;-62
2023/11/17 09:18:01;;;;;;;7.20;5.10;;;;;;;14.89;43.56;101701.41;106745;1267;22534;-62
2023/11/17 09:20:29;;;;;;;7.60;6.10;;;;;;;14.91;43.37;101696.66;106667;1259;22523;-62
2023/11/17 09:22:57;;;;;;;7.60;5.80;;;;;;;14.92;43.41;101697.86;106533;1259;22529;-63
2023/11/17 09:25:24;;;;;;;7.00;6.20;;;;;;;14.92;43.46;101693.84;106650;1257;22523;-62
2023/11/17 09:27:54;;;;;;;7.50;6.40;;;;;;;14.91;43.47;101683.88;106022;1267;1003589;-62
2023/11/17 09:30:22;;;;;;;7.20;6.50;;;;;;;14.89;43.82;101682.54;106359;1267;22530;-62
2023/11/17 09:32:54;;;;;;;8.10;6.60;;;;;;;14.90;43.89;101675.02;106690;1267;24238;-62
2023/11/17 09:35:27;;;;;;;9.50;6.90;;;;;;;14.94;44.06;101667.94;106012;1256;1002515;-62
2023/11/17 09:38:00;;;;;;;9.40;7.10;;;;;;;14.96;44.15;101666.98;106946;1270;24247;-62
2023/11/17 09:40:32;;;;;;;8.30;6.80;;;;;;;15.01;43.98;101662.33;106957;1269;25347;-61
2023/11/17 09:43:10;;;;;;;6.10;5.30;;;;;;;15.26;43.51;101658.67;107031;1270;23870;-62
2023/11/17 09:45:39;;;;;;;6.70;5.80;;;;;;;15.35;43.23;101657.75;106871;1256;22522;-63
2023/11/17 09:48:07;;;;;;;6.10;4.70;;;;;;;15.34;43.17;101658.80;106841;1269;25223;-62
2023/11/17 09:50:35;;;;;;;4.40;3.90;;;;;;;15.27;43.28;101658.83;106799;1256;22540;-62
2023/11/17 09:53:03;;;;;;;4.10;3.20;;;;;;;15.39;42.85;101651.86;106991;1253;22533;-62
2023/11/17 09:55:31;;;;;;;3.30;2.70;;;;;;;15.47;42.66;101645.56;106786;1264;22539;-62
2023/11/17 09:58:03;;;;;;;3.30;3.00;;;;;;;15.56;42.46;101644.26;106807;1273;22672;-62
2023/11/17 10:00:36;;;;;;;3.60;3.00;;;;;;;15.70;42.15;101640.34;107178;1272;22545;-61
2023/11/17 10:03:05;;;;;;;3.40;3.10;;;;;;;15.77;42.04;101637.16;106837;1271;25504;-62
2023/11/17 10:05:33;;;;;;;4.30;3.30;;;;;;;15.84;42.06;101635.73;106608;1265;22748;-62
2023/11/17 10:11:25;;;;;;;4.40;3.30;;;;;;;16.09;41.70;101618.16;103704;1298;545030;-62
2023/11/17 10:13:53;;;;;;;3.10;2.60;;;;;;;16.18;41.42;101616.30;105920;1276;22553;-62
2023/11/17 10:16:21;;;;;;;3.00;2.80;;;;;;;16.24;41.01;101615.59;105966;1280;25357;-61
2023/11/17 10:18:49;;;;;;;3.60;3.30;;;;;;;16.23;40.93;101615.79;105899;1287;25489;-62
2023/11/17 10:21:19;;;;;;;2.90;2.70;;;;;;;16.20;41.15;101615.38;105198;1284;1003697;-63
2023/11/17 10:23:47;;;;;;;5.00;2.90;;;;;;;16.22;41.13;101608.64;105966;1266;22551;-64
2023/11/17 10:26:16;;;;;;;2.60;2.40;;;;;;;16.27;41.00;101611.46;105774;1272;318995;-62
2023/11/17 10:28:44;;;;;;;3.20;2.60;;;;;;;16.29;41.03;101610.70;106176;1279;24238;-62
2023/11/17 10:31:11;;;;;;;2.30;2.10;;;;;;;16.27;40.93;101610.23;106634;1260;24213;-62
2023/11/17 10:33:45;;;;;;;2.90;2.20;;;;;;;16.33;40.80;101609.90;106447;1269;22539;-63
2023/11/17 10:36:15;;;;;;;23.80;13.10;;;;;;;16.37;40.77;101609.77;106503;1265;22536;-63
2023/11/17 10:38:45;;;;;;;7.60;6.50;;;;;;;16.42;40.70;101602.77;106471;1260;22536;-63
2023/11/17 10:41:17;;;;;;;4.90;3.90;;;;;;;16.45;40.87;101596.36;105771;1273;1002483;-62
2023/11/17 10:43:52;;;;;;;3.80;3.20;;;;;;;16.51;40.76;101593.02;106502;1272;22537;-62
2023/11/17 10:46:21;;;;;;;4.30;3.60;;;;;;;16.56;40.67;101581.67;106381;1259;22540;-61
2023/11/17 10:48:51;;;;;;;49.20;21.50;;;;;;;16.55;40.78;101575.59;106402;1274;24282;-62
2023/11/17 10:51:21;;;;;;;95.00;32.60;;;;;;;16.55;40.72;101574.02;106320;1278;23114;-62
2023/11/17 10:54:16;;;;;;;128.20;44.50;;;;;;;16.63;40.44;101566.88;106421;1272;25313;-62
2023/11/17 10:56:45;;;;;;;68.00;29.80;;;;;;;16.62;40.61;101561.67;105939;1277;22544;-62
2023/11/17 10:59:16;;;;;;;44.30;21.40;;;;;;;16.53;40.83;101554.59;105826;1280;23915;-63
2023/11/17 11:01:45;;;;;;;20.10;11.10;;;;;;;16.52;40.90;101553.62;105925;1281;23908;-63
2023/11/17 11:04:19;;;;;;;19.40;12.80;;;;;;;16.51;40.82;101547.34;105888;1285;22539;-63
2023/11/17 11:06:47;;;;;;;9.60;7.90;;;;;;;16.50;41.00;101543.52;105995;1281;22564;-62
2023/11/17 11:09:18;;;;;;;6.70;5.90;;;;;;;16.50;40.94;101534.58;106115;1265;26525;-62
2023/11/17 11:11:50;;;;;;;4.40;4.00;;;;;;;16.49;41.05;101532.49;106027;1279;22864;-61
2023/11/17 11:14:20;;;;;;;4.90;4.30;;;;;;;16.48;41.25;101530.60;106296;1279;25376;-63
2023/11/17 11:16:48;;;;;;;3.70;3.10;;;;;;;16.47;41.26;101526.59;106317;1279;22660;-62
2023/11/17 11:19:17;;;;;;;2.90;2.70;;;;;;;16.47;41.24;101524.34;106081;1284;22683;-63
2023/11/17 11:22:00;;;;;;;3.10;2.80;;;;;;;16.46;41.41;101524.53;106234;1279;24237;-63
2023/11/17 11:24:33;;;;;;;2.70;2.50;;;;;;;16.47;41.46;101526.41;106136;1279;22672;-61
2023/11/17 11:27:05;;;;;;;6.90;4.00;;;;;;;16.47;41.70;101528.00;106170;1269;22542;-62